首页
METAR-TAF:

METAR-TAF

机场 :

勒图凯巴黎普拉日, 法国

纬度: 50-30-53N, 经度: 001-37-39E, 海拔: 6米

当前天气观测

该预报发布于42分钟前的20:00 UTC
风速14节,风向西北
温度 9°C
湿度 76%
气压 998 hPa
能见度10公里或以上
散云层高于2500英尺
阴天层高于3500英尺

METAR: LFAT 122000Z AUTO 31014KT 9999 SCT025 OVC035 09/05 Q0998

时间: 21:42 (20:42 UTC)

预报

该预报发布于6小时和42分钟前的14:00 UTC
预报有效从12日的 15点(UTC)到 12日的 24点(UTC)
风速10节,风向西转西北
能见度10公里或以上
散云层高于3000英尺
短暂存在
从 12日的 15点(UTC)到 12日的 19点(UTC)
风速17节,风向西转西北,有时为27节阵风
能見度: 4000
多云层高于2500英尺, 积雨云.
阵雨
几率 40% :
短暂存在
从 12日的 15点(UTC)到 12日的 19点(UTC)
能見度: 2000
雷暴, 雨

TAF: LFAT 121400Z 1215/1224 29010KT 9999 SCT030 TEMPO 1215/1219 29017G27KT 4000 SHRA BKN025CB PROB40 TEMPO 1215/1219 2000 TSRA

超过4000个机场的气象观测和天气预报(METAR&TAF报告)。

可查询的气象台以黄色和红色小点在地图上表示。

将鼠标移到小点上方,可查看气象台名称。

然后点击查看天气观测和预报。

如需切换地图:点击带黑十字的绿色按钮放大地图;点击带横线的绿色按钮缩小地图;或者点击绿色箭头查看邻近地区的地图。


METAR-TAF: